Time;durP1;ratioP1;P1;durP2;ratioP2;P2;SDS_P1;SDS_P2;PMS_P1;PMS_P2;Temp;Humidity;BMP_temperature;BMP_pressure;BME280_temperature;BME280_humidity;BME280_pressure;Samples;Min_cycle;Max_cycle;Signal;HPM_P1;HPM_P2
2021/03/28 00:00:55;;;;;;;7.05;2.40;;;8.40;46.80;;;;;;4978363;28;20439;-80
2021/03/28 00:03:41;;;;;;;5.57;2.00;;;8.40;46.80;;;;;;4978347;28;20133;-80
2021/03/28 00:06:20;;;;;;;4.88;2.15;;;8.40;46.70;;;;;;4978269;28;20022;-79
2021/03/28 00:09:01;;;;;;;6.75;3.03;;;8.50;46.70;;;;;;4977870;28;20035;-79
2021/03/28 00:11:28;;;;;;;5.93;1.60;;;8.40;46.70;;;;;;4977959;28;20044;-81
2021/03/28 00:13:56;;;;;;;8.63;2.28;;;8.40;46.60;;;;;;4978189;28;20031;-81
2021/03/28 00:16:29;;;;;;;3.42;1.70;;;8.40;46.60;;;;;;4977743;28;20034;-81
2021/03/28 00:19:08;;;;;;;7.82;2.00;;;8.30;46.50;;;;;;4978190;28;20375;-81
2021/03/28 00:21:57;;;;;;;9.20;2.25;;;8.30;46.60;;;;;;4978056;28;20043;-81
2021/03/28 00:24:30;;;;;;;6.50;2.15;;;8.20;46.70;;;;;;4977978;28;20398;-81
2021/03/28 00:27:16;;;;;;;7.10;2.03;;;8.20;46.60;;;;;;4977733;28;20403;-81
2021/03/28 00:30:06;;;;;;;6.63;1.95;;;8.10;46.80;;;;;;4977779;28;20023;-81
2021/03/28 00:33:02;;;;;;;4.85;1.73;;;8.00;46.60;;;;;;4977595;28;20391;-81
2021/03/28 00:35:35;;;;;;;;;;;8.00;46.70;;;;;;4960793;28;20033;-81
2021/03/28 00:38:08;;;;;;;8.27;2.88;;;7.90;46.80;;;;;;4977506;28;19913;-81
2021/03/28 00:40:34;;;;;;;7.65;2.50;;;7.90;46.90;;;;;;4977658;28;20485;-82
2021/03/28 00:43:20;;;;;;;5.25;1.90;;;7.90;46.90;;;;;;4977494;28;20039;-82
2021/03/28 00:45:51;;;;;;;;;;;7.90;47.20;;;;;;4977939;28;20150;-82
2021/03/28 00:48:22;;;;;;;5.78;1.92;;;7.90;47.00;;;;;;4977502;28;20400;-82
2021/03/28 00:50:50;;;;;;;8.68;2.30;;;7.80;46.90;;;;;;4977353;28;20094;-82
2021/03/28 00:53:51;;;;;;;7.07;2.03;;;7.80;47.20;;;;;;4977070;28;20475;-81
2021/03/28 00:56:26;;;;;;;8.85;2.50;;;7.80;47.20;;;;;;4955808;28;20058;-81
2021/03/28 00:59:03;;;;;;;10.65;2.78;;;7.80;47.30;;;;;;4977224;28;20023;-81
2021/03/28 01:01:52;;;;;;;6.03;2.40;;;7.80;47.40;;;;;;4977278;28;20409;-81
2021/03/28 01:04:29;;;;;;;6.72;2.38;;;7.80;47.50;;;;;;4976867;28;20479;-81
2021/03/28 01:07:02;;;;;;;10.15;2.15;;;7.80;47.50;;;;;;4977096;28;20054;-81
2021/03/28 01:10:11;;;;;;;8.00;2.47;;;7.80;47.50;;;;;;4977022;28;20069;-81
2021/03/28 01:13:09;;;;;;;6.70;2.95;;;7.80;47.70;;;;;;4976841;28;20034;-81
2021/03/28 01:16:34;;;;;;;7.63;2.97;;;7.80;47.60;;;;;;4976764;28;20023;-81
2021/03/28 01:19:08;;;;;;;9.32;2.78;;;7.80;47.70;;;;;;4936284;29;20463;-80
2021/03/28 01:21:53;;;;;;;6.57;2.17;;;7.80;47.80;;;;;;4936203;29;20059;-82
2021/03/28 01:24:37;;;;;;;4.05;2.10;;;7.80;47.70;;;;;;4963373;28;20042;-82
2021/03/28 01:27:14;;;;;;;7.93;2.42;;;7.70;47.70;;;;;;4976676;28;20026;-82
2021/03/28 01:29:40;;;;;;;8.13;2.83;;;7.70;47.80;;;;;;4976457;28;20027;-81
2021/03/28 01:32:10;;;;;;;5.45;1.45;;;7.70;47.80;;;;;;4976589;28;20039;-81
2021/03/28 01:34:53;;;;;;;7.20;2.08;;;7.60;47.70;;;;;;4976559;28;20019;-81
2021/03/28 01:37:24;;;;;;;9.13;2.35;;;7.60;47.80;;;;;;4976312;28;20121;-81
2021/03/28 01:40:17;;;;;;;6.75;2.58;;;8.00;48.10;;;;;;4976540;28;20395;-81
2021/03/28 01:42:58;;;;;;;7.60;2.55;;;7.50;47.80;;;;;;4976477;28;20081;-81
2021/03/28 01:45:37;;;;;;;7.43;2.72;;;7.40;47.70;;;;;;4976201;28;20031;-81
2021/03/28 01:48:03;;;;;;;7.68;2.63;;;7.30;47.80;;;;;;4976193;28;20019;-81
2021/03/28 01:50:40;;;;;;;8.75;2.50;;;7.30;47.80;;;;;;4976152;28;20034;-81
2021/03/28 01:53:33;;;;;;;6.80;2.80;;;7.20;47.80;;;;;;4976335;28;20065;-81
2021/03/28 01:56:12;;;;;;;7.82;2.67;;;7.20;48.80;;;;;;4976242;28;20023;-81
2021/03/28 01:59:01;;;;;;;9.18;2.42;;;7.20;48.20;;;;;;4975961;28;20027;-81
2021/03/28 02:01:42;;;;;;;8.63;3.00;;;7.20;48.20;;;;;;4976218;28;20031;-80
2021/03/28 02:04:47;;;;;;;8.77;2.58;;;7.10;48.10;;;;;;4976092;28;20073;-80
2021/03/28 02:07:29;;;;;;;10.02;2.90;;;7.10;48.30;;;;;;4935202;29;20385;-80
2021/03/28 02:10:31;;;;;;;7.13;2.45;;;7.10;48.30;;;;;;4973089;28;20031;-81
2021/03/28 02:13:16;;;;;;;5.95;2.38;;;7.00;48.20;;;;;;4963383;28;20053;-80
2021/03/28 02:15:46;;;;;;;8.88;2.17;;;7.00;48.40;;;;;;4976174;28;20471;-81
2021/03/28 02:18:20;;;;;;;6.75;2.30;;;7.00;48.40;;;;;;4975565;28;20042;-80
2021/03/28 02:20:57;;;;;;;4.60;2.10;;;7.00;48.50;;;;;;4975489;28;20039;-80
2021/03/28 02:23:44;;;;;;;8.20;2.58;;;7.00;48.70;;;;;;4975644;28;20027;-80
2021/03/28 02:26:27;;;;;;;11.73;2.72;;;7.10;48.90;;;;;;4975570;28;20475;-80
2021/03/28 02:28:58;;;;;;;7.20;1.90;;;7.10;48.90;;;;;;4976183;28;20026;-80
2021/03/28 02:31:47;;;;;;;6.65;2.30;;;7.10;48.80;;;;;;4975530;28;20491;-80
2021/03/28 02:34:41;;;;;;;8.27;2.30;;;7.10;48.90;;;;;;4975474;28;20023;-80
2021/03/28 02:37:06;;;;;;;8.05;2.10;;;7.10;49.00;;;;;;4957940;28;20394;-80
2021/03/28 02:39:32;;;;;;;11.27;2.67;;;7.20;48.90;;;;;;4975216;28;20019;-80
2021/03/28 02:42:13;;;;;;;6.68;2.03;;;7.20;48.90;;;;;;4975290;28;20035;-80
2021/03/28 02:45:19;;;;;;;6.80;2.08;;;7.20;48.80;;;;;;4975483;28;20025;-81
2021/03/28 02:47:51;;;;;;;8.05;2.13;;;7.10;49.00;;;;;;4950172;29;20035;-81
2021/03/28 02:50:44;;;;;;;7.68;2.40;;;7.10;48.80;;;;;;4955859;29;20027;-81
2021/03/28 02:53:32;;;;;;;8.88;2.70;;;7.00;48.80;;;;;;4955885;29;20031;-81
2021/03/28 02:56:00;;;;;;;9.57;2.30;;;6.90;48.70;;;;;;4955709;29;20024;-81
2021/03/28 02:58:49;;;;;;;4.57;2.05;;;6.90;48.80;;;;;;4955811;29;20031;-81
2021/03/28 03:01:39;;;;;;;9.70;2.95;;;6.90;48.90;;;;;;4955953;29;20023;-82
2021/03/28 03:04:26;;;;;;;7.78;2.40;;;6.80;49.00;;;;;;4955910;29;20027;-81
2021/03/28 03:07:06;;;;;;;11.43;2.47;;;6.80;48.90;;;;;;4955508;29;20035;-81
2021/03/28 03:10:08;;;;;;;6.05;2.13;;;6.80;49.00;;;;;;4955731;29;20024;-81
2021/03/28 03:13:01;;;;;;;6.13;2.42;;;6.70;49.00;;;;;;4955567;29;20032;-81
2021/03/28 03:15:27;;;;;;;6.32;2.40;;;6.70;48.80;;;;;;4955021;29;20035;-81
2021/03/28 03:18:09;;;;;;;10.35;2.53;;;6.60;48.70;;;;;;4955485;29;20028;-81
2021/03/28 03:20:46;;;;;;;8.18;2.50;;;6.50;48.80;;;;;;4955084;29;20495;-81
2021/03/28 03:23:12;;;;;;;9.05;2.30;;;6.50;49.10;;;;;;4954988;29;20023;-81
2021/03/28 03:25:58;;;;;;;6.63;2.20;;;6.50;49.20;;;;;;4955626;29;20030;-81
2021/03/28 03:28:48;;;;;;;8.80;2.35;;;6.50;49.40;;;;;;4954092;29;20110;-81
2021/03/28 03:31:52;;;;;;;6.72;2.05;;;6.60;49.60;;;;;;4955312;29;20035;-81
2021/03/28 03:34:36;;;;;;;6.43;2.30;;;6.70;49.70;;;;;;4955211;29;20027;-81
2021/03/28 03:37:08;;;;;;;7.63;2.40;;;6.70;49.70;;;;;;4955410;29;20054;-81
2021/03/28 03:39:58;;;;;;;6.20;2.42;;;6.80;49.70;;;;;;4955163;29;20468;-81
2021/03/28 03:43:00;;;;;;;10.50;2.38;;;6.80;49.80;;;;;;4955227;29;20031;-81
2021/03/28 03:45:48;;;;;;;5.90;2.08;;;6.90;49.80;;;;;;4955288;29;20026;-81
2021/03/28 03:48:22;;;;;;;6.25;2.13;;;6.90;49.80;;;;;;4955316;29;20498;-80
2021/03/28 03:50:57;;;;;;;7.93;2.33;;;6.90;49.70;;;;;;4955239;29;20027;-80
2021/03/28 03:53:31;;;;;;;;;;;6.90;50.30;;;;;;4955605;28;20392;-80
2021/03/28 03:56:15;;;;;;;6.45;2.20;;;6.90;49.70;;;;;;4955094;28;19913;-80
2021/03/28 03:58:56;;;;;;;8.57;2.13;;;6.90;49.80;;;;;;4955153;29;20035;-81
2021/03/28 04:01:36;;;;;;;5.80;2.00;;;7.00;49.80;;;;;;4955283;28;20051;-81
2021/03/28 04:04:16;;;;;;;5.25;1.75;;;7.00;50.40;;;;;;4969907;28;20085;-80
2021/03/28 04:07:05;;;;;;;4.50;1.80;;;6.90;49.60;;;;;;4954932;28;20031;-80
2021/03/28 04:10:05;;;;;;;3.90;2.10;;;6.90;49.70;;;;;;4955058;28;20031;-81
2021/03/28 04:13:02;;;;;;;5.78;2.15;;;6.90;49.80;;;;;;4954309;28;20138;-81
2021/03/28 04:15:49;;;;;;;6.60;1.88;;;7.00;49.90;;;;;;4954784;28;20050;-81
2021/03/28 04:18:35;;;;;;;6.00;1.98;;;6.90;49.70;;;;;;4954985;29;20034;-81
2021/03/28 04:21:22;;;;;;;3.15;1.58;;;6.90;49.70;;;;;;4965155;28;20214;-81
2021/03/28 04:24:08;;;;;;;3.65;1.98;;;6.90;49.80;;;;;;4974024;28;20471;-81
2021/03/28 04:26:52;;;;;;;8.23;2.17;;;6.90;49.90;;;;;;4974206;28;20061;-80
2021/03/28 04:29:19;;;;;;;4.43;1.90;;;6.90;50.00;;;;;;4974181;28;20430;-81
2021/03/28 04:32:28;;;;;;;2.45;1.42;;;6.90;50.10;;;;;;4974121;28;20125;-81
2021/03/28 04:35:36;;;;;;;8.70;2.53;;;6.90;50.00;;;;;;4977326;28;20022;-81
2021/03/28 04:38:16;;;;;;;8.13;1.80;;;6.90;50.20;;;;;;4899302;29;20591;-81
2021/03/28 04:41:28;;;;;;;6.50;1.98;;;6.90;50.10;;;;;;4972929;28;20071;-81
2021/03/28 04:44:27;;;;;;;5.65;1.83;;;6.90;50.20;;;;;;4977589;28;20030;-81
2021/03/28 04:47:32;;;;;;;5.97;1.73;;;6.90;50.10;;;;;;4977156;28;20046;-81
2021/03/28 04:50:02;;;;;;;6.65;2.05;;;6.90;50.10;;;;;;4976064;28;20034;-81
2021/03/28 04:52:58;;;;;;;7.22;2.05;;;6.90;50.10;;;;;;4977336;28;20058;-81
2021/03/28 04:55:45;;;;;;;4.65;1.92;;;6.90;50.20;;;;;;4977363;28;20022;-81
2021/03/28 04:58:49;;;;;;;7.72;2.40;;;6.90;50.20;;;;;;4976010;28;20502;-81
2021/03/28 05:01:39;;;;;;;9.40;2.40;;;7.00;50.40;;;;;;4977043;28;20023;-81
2021/03/28 05:04:07;;;;;;;7.32;2.00;;;7.00;50.40;;;;;;4977201;28;20050;-81
2021/03/28 05:06:49;;;;;;;4.13;1.63;;;7.00;50.40;;;;;;4977088;28;20031;-80
2021/03/28 05:09:51;;;;;;;9.02;2.03;;;7.00;50.40;;;;;;4977158;28;20463;-80
2021/03/28 05:13:02;;;;;;;4.88;1.70;;;7.00;50.50;;;;;;4977121;28;20497;-80
2021/03/28 05:15:44;;;;;;;8.32;1.90;;;7.10;50.60;;;;;;4936159;29;20099;-80
2021/03/28 05:18:46;;;;;;;7.32;2.38;;;7.10;50.60;;;;;;4936444;29;20495;-80
2021/03/28 05:21:36;;;;;;;8.75;2.13;;;7.10;50.60;;;;;;4969285;28;20410;-80
2021/03/28 05:24:11;;;;;;;4.90;1.85;;;7.10;50.70;;;;;;4976654;28;20050;-80
2021/03/28 05:26:48;;;;;;;;;;;7.20;50.70;;;;;;4977322;28;20037;-80
2021/03/28 05:29:39;;;;;;;3.50;1.70;;;7.20;50.80;;;;;;4976866;28;19953;-80
2021/03/28 05:32:52;;;;;;;;;;;;;;;;;;;;;
2021/03/28 05:39:01;;;;;;;7.45;2.25;;;7.50;51.40;;;;;;4976925;28;20387;-86
2021/03/28 05:42:02;;;;;;;6.20;1.85;;;7.60;51.40;;;;;;4975274;28;20039;-85
2021/03/28 05:44:49;;;;;;;8.43;2.13;;;7.60;51.30;;;;;;4974065;28;20026;-85
2021/03/28 05:47:52;;;;;;;8.18;2.10;;;7.80;51.40;;;;;;4969409;28;20027;-85
2021/03/28 05:50:32;;;;;;;6.05;2.13;;;7.90;51.60;;;;;;4975122;28;20030;-85
2021/03/28 05:53:44;;;;;;;4.78;1.77;;;8.00;51.80;;;;;;4974585;28;20108;-86
2021/03/28 05:56:47;;;;;;;4.70;1.58;;;8.10;51.60;;;;;;4964431;28;20062;-86
2021/03/28 06:00:02;;;;;;;5.95;2.30;;;8.20;51.40;;;;;;4976106;28;20023;-86
2021/03/28 06:03:05;;;;;;;7.13;2.23;;;8.30;51.50;;;;;;4988515;28;20030;-85
2021/03/28 06:06:33;;;;;;;;;;;;;;;;;;;;;
2021/03/28 06:09:43;;;;;;;7.57;2.08;;;8.30;51.30;;;;;;4975723;28;20031;-85
2021/03/28 06:12:36;;;;;;;8.52;2.80;;;8.30;51.10;;;;;;4958525;28;20035;-84
2021/03/28 06:15:15;;;;;;;6.07;2.17;;;8.30;51.30;;;;;;4968382;28;20030;-84
2021/03/28 06:18:05;;;;;;;7.15;1.80;;;8.30;51.20;;;;;;4977748;28;20026;-85
2021/03/28 06:20:55;;;;;;;8.23;2.10;;;8.40;51.40;;;;;;4995070;28;20383;-85
2021/03/28 06:23:58;;;;;;;4.93;2.05;;;8.50;51.60;;;;;;4993857;28;20034;-84
2021/03/28 06:26:58;;;;;;;8.13;2.10;;;8.40;51.30;;;;;;4977711;28;20030;-86
2021/03/28 06:30:02;;;;;;;4.90;1.95;;;8.50;51.60;;;;;;4977481;28;20027;-86
2021/03/28 06:46:47;;;;;;;6.63;1.83;;;9.00;51.80;;;;;;4915458;29;20400;-88
2021/03/28 06:53:37;;;;;;;;;;;;;;;;;;;;;
2021/03/28 06:56:40;;;;;;;3.28;1.90;;;9.30;52.00;;;;;;4914705;29;20036;-86
2021/03/28 06:59:46;;;;;;;4.65;1.90;;;9.40;52.00;;;;;;4915168;29;20062;-86
2021/03/28 07:03:09;;;;;;;4.53;1.67;;;9.50;52.20;;;;;;4909701;28;20040;-87
2021/03/28 07:09:21;;;;;;;2.40;1.10;;;10.00;52.30;;;;;;4975086;28;20053;-88
2021/03/28 07:15:47;;;;;;;4.72;1.52;;;10.10;51.90;;;;;;4974885;28;20095;-84
2021/03/28 07:19:00;;;;;;;;;;;;;;;;;;;;;
2021/03/28 07:39:02;;;;;;;6.95;1.80;;;10.60;52.30;;;;;;4974842;28;20150;-85
2021/03/28 07:41:55;;;;;;;5.72;2.13;;;10.60;52.00;;;;;;4973427;28;20062;-86
2021/03/28 07:44:53;;;;;;;7.88;2.47;;;10.70;52.10;;;;;;4974637;28;20015;-85
2021/03/28 07:47:37;;;;;;;6.22;2.20;;;10.80;52.20;;;;;;4975290;28;20097;-84
2021/03/28 07:50:21;;;;;;;6.85;1.80;;;10.90;52.20;;;;;;4974926;28;20019;-89
2021/03/28 07:53:12;;;;;;;5.93;2.00;;;11.00;52.20;;;;;;4974768;28;20124;-85
2021/03/28 07:56:16;;;;;;;5.60;2.10;;;11.10;52.00;;;;;;4974616;28;20034;-85
2021/03/28 07:59:09;;;;;;;6.50;2.00;;;11.20;52.50;;;;;;4973459;28;20212;-85
2021/03/28 08:02:00;;;;;;;7.38;2.20;;;11.40;52.60;;;;;;4967820;28;20142;-85
2021/03/28 08:05:04;;;;;;;8.45;2.03;;;11.60;52.40;;;;;;4973910;28;20121;-85
2021/03/28 08:07:52;;;;;;;5.50;2.03;;;11.70;52.30;;;;;;4897284;29;20097;-83
2021/03/28 08:10:58;;;;;;;2.88;1.38;;;11.80;52.30;;;;;;4974196;28;20466;-85
2021/03/28 08:13:44;;;;;;;5.60;2.25;;;11.90;51.90;;;;;;4948630;28;20042;-85
2021/03/28 08:16:28;;;;;;;10.43;3.08;;;12.00;52.20;;;;;;4978172;28;20109;-85
2021/03/28 08:19:18;;;;;;;4.80;2.23;;;12.00;52.00;;;;;;4981793;28;20026;-83
2021/03/28 08:22:29;;;;;;;4.10;2.00;;;12.10;52.60;;;;;;4960838;28;20058;-84
2021/03/28 08:25:40;;;;;;;5.07;2.13;;;12.30;52.40;;;;;;4948417;28;20113;-83
2021/03/28 08:28:28;;;;;;;8.32;2.83;;;12.40;52.20;;;;;;4976627;28;20125;-86
2021/03/28 08:37:05;;;;;;;4.85;1.85;;;12.90;52.50;;;;;;5914741;23;20090;-90
2021/03/28 08:39:51;;;;;;;5.57;2.35;;;13.10;52.40;;;;;;4960426;28;20038;-83
2021/03/28 08:42:29;;;;;;;11.82;5.45;;;13.00;51.50;;;;;;4976529;28;20078;-82
2021/03/28 08:49:00;;;;;;;11.52;3.83;;;12.80;51.60;;;;;;4978886;28;20092;-89
2021/03/28 08:52:12;;;;;;;7.82;2.90;;;12.80;51.60;;;;;;4961146;28;20038;-94
2021/03/28 08:55:12;;;;;;;5.10;1.80;;;12.60;51.20;;;;;;4976417;28;20116;-86
2021/03/28 08:57:42;;;;;;;9.82;2.67;;;12.60;51.70;;;;;;4976137;28;20033;-85
2021/03/28 09:00:21;;;;;;;11.20;3.97;;;12.70;52.20;;;;;;4975320;28;20030;-84
2021/03/28 09:03:20;;;;;;;7.60;2.85;;;12.80;52.20;;;;;;4975710;28;20189;-88
2021/03/28 09:06:33;;;;;;;;;;;;;;;;;;;;;
2021/03/28 09:09:53;;;;;;;11.60;4.10;;;12.80;51.80;;;;;;4978186;28;20039;-88
2021/03/28 09:12:52;;;;;;;8.63;3.28;;;12.80;51.50;;;;;;4935759;29;20047;-92
2021/03/28 09:16:09;;;;;;;5.68;1.95;;;12.90;51.80;;;;;;4936196;29;20453;-81
2021/03/28 09:25:02;;;;;;;5.90;1.50;;;12.80;51.20;;;;;;5231718;23;20137;-86
2021/03/28 09:28:05;;;;;;;9.20;2.50;;;12.70;50.90;;;;;;4995392;28;20026;-94
2021/03/28 09:31:09;;;;;;;7.47;2.30;;;12.70;51.20;;;;;;4997085;28;20050;-91
2021/03/28 09:33:51;;;;;;;3.65;1.48;;;12.70;51.40;;;;;;4998283;28;20316;-81
2021/03/28 09:36:28;;;;;;;6.97;2.10;;;12.70;51.40;;;;;;4991429;28;20058;-80
2021/03/28 09:39:20;;;;;;;5.82;2.03;;;12.80;51.50;;;;;;4976887;28;20030;-80
2021/03/28 09:42:07;;;;;;;6.90;2.38;;;12.90;51.50;;;;;;4976939;28;20030;-80
2021/03/28 09:45:14;;;;;;;4.15;1.88;;;13.00;51.70;;;;;;4976722;28;20065;-81
2021/03/28 09:47:46;;;;;;;4.00;1.58;;;13.10;51.60;;;;;;4996045;28;20027;-81
2021/03/28 09:50:30;;;;;;;10.10;2.67;;;13.30;51.70;;;;;;4994728;28;20027;-81
2021/03/28 09:53:25;;;;;;;6.37;2.40;;;13.40;51.50;;;;;;4995934;28;20517;-82
2021/03/28 10:13:45;;;;;;;;;;;14.00;50.10;;;;;;4857921;29;20047;-79
2021/03/28 10:16:15;;;;;;;3.63;1.50;;;14.10;50.70;;;;;;4907140;29;19918;-81
2021/03/28 10:18:59;;;;;;;7.35;2.30;;;14.20;50.30;;;;;;4998333;28;20101;-81
2021/03/28 10:21:55;;;;;;;4.45;1.85;;;14.40;51.00;;;;;;4997762;28;20027;-80
2021/03/28 10:24:36;;;;;;;3.85;1.73;;;14.50;50.00;;;;;;4998553;28;20038;-84
2021/03/28 10:27:20;;;;;;;9.40;2.13;;;14.70;50.80;;;;;;5013041;28;20049;-84
2021/03/28 10:29:55;;;;;;;2.53;1.13;;;15.10;51.50;;;;;;5018520;28;20022;-82
2021/03/28 10:39:46;;;;;;;8.40;2.88;;;16.20;51.20;;;;;;4995924;28;20041;-85
2021/03/28 10:53:38;;;;;;;6.35;1.63;;;17.50;49.80;;;;;;5122878;23;20061;-82
2021/03/28 10:56:42;;;;;;;6.63;2.17;;;18.00;51.80;;;;;;4994941;28;20026;-83
2021/03/28 10:59:54;;;;;;;2.75;1.80;;;18.40;51.60;;;;;;5014907;28;20586;-82
2021/03/28 11:02:58;;;;;;;4.78;1.90;;;18.80;51.00;;;;;;4996255;28;20034;-83
2021/03/28 11:06:02;;;;;;;3.83;1.80;;;19.20;51.80;;;;;;5012288;28;20050;-84
2021/03/28 11:09:02;;;;;;;2.27;1.43;;;19.40;50.90;;;;;;4982649;28;20125;-84
2021/03/28 11:12:01;;;;;;;3.72;1.63;;;19.30;49.00;;;;;;4994995;28;20034;-82
2021/03/28 11:15:09;;;;;;;4.47;1.80;;;19.00;49.60;;;;;;4995950;28;20045;-84
2021/03/28 11:18:12;;;;;;;4.47;1.60;;;18.80;48.00;;;;;;4997885;28;20427;-83
2021/03/28 11:21:12;;;;;;;2.15;1.40;;;18.30;47.60;;;;;;4997950;28;20427;-82
2021/03/28 11:24:28;;;;;;;2.55;1.58;;;18.30;49.10;;;;;;4998503;28;20505;-85
2021/03/28 11:27:28;;;;;;;7.60;2.10;;;19.20;51.60;;;;;;5002563;28;20441;-85
2021/03/28 11:34:24;;;;;;;;;;;;;;;;;;;;;
2021/03/28 11:37:30;;;;;;;;;;;;;;;;;;;;;
2021/03/28 11:40:46;;;;;;;3.38;1.98;;;19.20;45.20;;;;;;4997737;28;20109;-85
2021/03/28 11:43:33;;;;;;;7.07;2.92;;;19.10;47.90;;;;;;5014984;28;20045;-84
2021/03/28 11:56:31;;;;;;;4.32;1.52;;;21.40;49.20;;;;;;2233005;26;20046;-84
2021/03/28 11:59:08;;;;;;;3.13;1.40;;;21.50;48.50;;;;;;4964609;28;20073;-85
2021/03/28 12:01:59;;;;;;;4.13;1.65;;;21.40;47.90;;;;;;5014217;28;20037;-82
2021/03/28 12:04:58;;;;;;;4.07;1.63;;;21.60;48.10;;;;;;5022583;28;20018;-86
2021/03/28 12:07:40;;;;;;;3.00;1.67;;;21.50;46.90;;;;;;5013573;28;20034;-83
2021/03/28 12:10:06;;;;;;;3.83;1.73;;;21.60;48.20;;;;;;5021260;28;20030;-83
2021/03/28 12:12:50;;;;;;;4.47;1.90;;;22.00;48.90;;;;;;5015094;28;20042;-85
2021/03/28 12:15:55;;;;;;;4.82;1.67;;;22.40;49.00;;;;;;5022408;28;20085;-82
2021/03/28 12:18:34;;;;;;;2.92;1.75;;;23.10;49.40;;;;;;5022621;28;20022;-84
2021/03/28 12:21:02;;;;;;;2.75;1.50;;;23.40;48.50;;;;;;5021390;28;20474;-85
2021/03/28 12:27:35;;;;;;;;;;;;;;;;;;;;;
2021/03/28 12:36:04;;;;;;;5.93;1.90;;;24.30;48.20;;;;;;5254364;23;20062;-80
2021/03/28 12:38:30;;;;;;;3.83;1.60;;;24.80;48.20;;;;;;5000692;28;20026;-82
2021/03/28 12:41:42;;;;;;;2.40;1.30;;;25.10;46.80;;;;;;4984973;28;20038;-85
2021/03/28 12:44:09;;;;;;;6.20;1.73;;;25.30;46.60;;;;;;4964982;28;20072;-83
2021/03/28 12:47:13;;;;;;;3.35;1.73;;;24.90;44.50;;;;;;5001464;28;20414;-84
2021/03/28 12:49:59;;;;;;;2.80;1.38;;;24.80;44.00;;;;;;4984138;28;20470;-85
2021/03/28 12:53:19;;;;;;;;;;;;;;;;;;;;;
2021/03/28 12:56:35;;;;;;;;;;;;;;;;;;;;;
2021/03/28 12:59:01;;;;;;;4.07;1.50;;;25.90;45.90;;;;;;5001591;28;20558;-83
2021/03/28 13:01:38;;;;;;;4.43;1.70;;;26.10;44.20;;;;;;4983435;28;20093;-83
2021/03/28 13:04:24;;;;;;;2.80;1.63;;;26.10;44.20;;;;;;4983226;28;20030;-83
2021/03/28 13:06:54;;;;;;;3.70;1.70;;;26.30;44.40;;;;;;4982956;28;20028;-82
2021/03/28 13:09:27;;;;;;;5.25;1.83;;;26.70;45.30;;;;;;5001311;28;20105;-79
2021/03/28 13:11:58;;;;;;;4.72;1.85;;;27.10;45.30;;;;;;5000787;28;20031;-80
2021/03/28 13:14:47;;;;;;;2.42;1.60;;;27.40;44.80;;;;;;5002208;28;20023;-85
2021/03/28 13:24:33;;;;;;;2.72;1.63;;;27.70;43.80;;;;;;4968715;28;20152;-87
2021/03/28 13:39:38;;;;;;;2.30;1.30;;;28.20;43.50;;;;;;5046275;23;20140;-86
2021/03/28 13:46:04;;;;;;;4.63;1.70;;;28.10;40.40;;;;;;5017718;28;20084;-86
2021/03/28 13:48:30;;;;;;;4.83;1.77;;;28.30;41.50;;;;;;5017462;28;20050;-81
2021/03/28 14:16:24;;;;;;;3.45;1.75;;;31.10;41.90;;;;;;5376501;23;20566;-88
2021/03/28 14:18:55;;;;;;;4.90;1.92;;;32.00;43.60;;;;;;4982883;28;20072;-81
2021/03/28 14:21:23;;;;;;;4.47;1.73;;;32.40;39.70;;;;;;4995378;28;20415;-82
2021/03/28 14:23:56;;;;;;;3.95;1.60;;;31.90;38.80;;;;;;4995230;28;20478;-82
2021/03/28 14:26:32;;;;;;;3.55;1.77;;;32.00;39.00;;;;;;4995046;28;20057;-82
2021/03/28 14:28:58;;;;;;;5.13;1.83;;;31.80;38.80;;;;;;4990712;28;20030;-83
2021/03/28 14:31:37;;;;;;;4.15;1.70;;;31.00;36.70;;;;;;4994941;28;20033;-82
2021/03/28 14:34:06;;;;;;;2.80;1.55;;;30.70;37.70;;;;;;4995369;28;20061;-82
2021/03/28 14:36:58;;;;;;;3.85;1.60;;;30.50;37.30;;;;;;4996387;28;20429;-83
2021/03/28 14:39:39;;;;;;;2.83;1.42;;;30.20;36.90;;;;;;4997409;28;20076;-84
2021/03/28 14:42:12;;;;;;;4.90;1.70;;;30.00;36.50;;;;;;4993642;28;20030;-84
2021/03/28 14:45:00;;;;;;;5.10;1.80;;;29.90;36.40;;;;;;4995608;28;20083;-83
2021/03/28 14:47:49;;;;;;;15.77;10.63;;;29.80;36.50;;;;;;4986103;28;20037;-81
2021/03/28 14:50:27;;;;;;;5.25;2.20;;;29.80;35.80;;;;;;4995035;28;20088;-82
2021/03/28 14:53:12;;;;;;;4.78;2.10;;;29.50;35.40;;;;;;4989245;28;20446;-82
2021/03/28 14:56:01;;;;;;;4.38;1.80;;;29.60;36.20;;;;;;4996321;28;20030;-81
2021/03/28 14:58:45;;;;;;;3.60;1.98;;;29.50;35.10;;;;;;4994698;28;20028;-83
2021/03/28 15:01:34;;;;;;;;;;;29.00;33.40;;;;;;4995148;28;20085;-83
2021/03/28 15:04:29;;;;;;;3.85;1.90;;;28.30;33.00;;;;;;4994434;28;19913;-84
2021/03/28 15:07:26;;;;;;;5.78;1.88;;;28.00;33.80;;;;;;4988273;28;20038;-84
2021/03/28 15:10:06;;;;;;;5.57;1.77;;;28.00;34.10;;;;;;4994386;28;20073;-84
2021/03/28 15:12:42;;;;;;;3.67;1.60;;;28.00;33.20;;;;;;4986265;28;20034;-84
2021/03/28 15:15:32;;;;;;;4.50;1.88;;;27.90;33.30;;;;;;4994681;28;20026;-84
2021/03/28 15:18:15;;;;;;;4.47;1.50;;;27.90;33.10;;;;;;4994720;28;20487;-83
2021/03/28 15:21:16;;;;;;;3.28;1.50;;;28.00;33.30;;;;;;4994783;28;20026;-84
2021/03/28 15:23:57;;;;;;;3.20;1.35;;;28.20;33.70;;;;;;4988895;28;20022;-85
2021/03/28 15:27:15;;;;;;;5.60;2.15;;;28.20;33.10;;;;;;4994399;28;20030;-84
2021/03/28 15:30:14;;;;;;;2.97;1.30;;;27.90;32.60;;;;;;4939989;28;20399;-84
2021/03/28 15:33:07;;;;;;;5.05;2.28;;;27.40;30.50;;;;;;4993013;28;20450;-84
2021/03/28 15:36:08;;;;;;;3.63;1.42;;;26.70;30.80;;;;;;4993266;28;20466;-84
2021/03/28 15:39:07;;;;;;;4.03;1.77;;;26.50;30.80;;;;;;4992717;28;20026;-84
2021/03/28 15:41:40;;;;;;;2.38;1.60;;;26.20;31.60;;;;;;4951209;28;20061;-84
2021/03/28 15:44:15;;;;;;;6.03;1.77;;;26.30;31.70;;;;;;4990639;28;20490;-84
2021/03/28 15:46:47;;;;;;;2.97;1.50;;;26.30;31.60;;;;;;4975920;28;20039;-83
2021/03/28 15:49:20;;;;;;;5.03;2.00;;;26.20;31.20;;;;;;4973576;28;20375;-83
2021/03/28 15:52:01;;;;;;;2.65;1.27;;;26.00;30.70;;;;;;4957722;28;20038;-83
2021/03/28 15:54:44;;;;;;;5.57;2.08;;;25.70;30.00;;;;;;4957530;28;20082;-83
2021/03/28 15:57:20;;;;;;;7.20;2.38;;;24.90;29.50;;;;;;4957575;28;20125;-82
2021/03/28 16:00:06;;;;;;;4.18;1.52;;;24.50;29.30;;;;;;4958085;28;20487;-82
2021/03/28 16:02:49;;;;;;;5.78;2.08;;;24.10;29.30;;;;;;4975041;28;20034;-83
2021/03/28 16:05:44;;;;;;;3.90;1.98;;;23.40;29.00;;;;;;4957571;28;20023;-83
2021/03/28 16:08:47;;;;;;;4.00;1.80;;;23.00;29.20;;;;;;4889214;28;20033;-83
2021/03/28 16:11:50;;;;;;;5.15;1.80;;;22.80;29.60;;;;;;4974414;28;20027;-82
2021/03/28 16:14:38;;;;;;;5.40;1.73;;;22.40;28.80;;;;;;4974375;28;20034;-82
2021/03/28 16:17:24;;;;;;;5.47;2.17;;;21.90;28.90;;;;;;4974382;28;20047;-82
2021/03/28 16:19:59;;;;;;;5.18;1.90;;;21.70;29.10;;;;;;4975229;28;20023;-82
2021/03/28 16:22:46;;;;;;;4.38;1.95;;;21.70;29.30;;;;;;4957429;28;20430;-82
2021/03/28 16:25:14;;;;;;;5.28;2.22;;;21.60;29.30;;;;;;4974729;28;20023;-82
2021/03/28 16:28:00;;;;;;;4.00;1.90;;;21.60;29.30;;;;;;4975160;28;20022;-83
2021/03/28 16:30:27;;;;;;;7.32;2.03;;;21.50;29.20;;;;;;4979027;28;20027;-82
2021/03/28 16:33:17;;;;;;;5.65;1.85;;;21.20;28.80;;;;;;4978301;28;20039;-83
2021/03/28 16:36:18;;;;;;;7.40;3.08;;;21.10;28.90;;;;;;4960446;28;20423;-85
2021/03/28 16:39:06;;;;;;;8.65;3.30;;;20.80;29.00;;;;;;4960111;28;20166;-85
2021/03/28 16:42:18;;;;;;;7.40;3.08;;;20.70;28.80;;;;;;4960471;28;20022;-91
2021/03/28 16:45:13;;;;;;;6.30;2.25;;;20.40;28.70;;;;;;4960394;28;20022;-82
2021/03/28 16:47:44;;;;;;;;;;;20.10;28.60;;;;;;4997092;28;20030;-83
2021/03/28 16:50:13;;;;;;;8.52;2.85;;;19.80;28.60;;;;;;4996822;28;19906;-83
2021/03/28 16:52:46;;;;;;;9.20;4.00;;;19.50;28.70;;;;;;4996764;28;20041;-83
2021/03/28 16:55:26;;;;;;;7.05;2.75;;;19.40;28.80;;;;;;4996759;28;20056;-82
2021/03/28 16:57:55;;;;;;;9.70;3.17;;;19.30;28.70;;;;;;4991575;28;20379;-82
2021/03/28 17:00:24;;;;;;;7.72;2.65;;;19.20;28.70;;;;;;4996991;28;20022;-82
2021/03/28 17:02:52;;;;;;;6.18;1.98;;;19.00;28.60;;;;;;4990799;28;20114;-82
2021/03/28 17:05:21;;;;;;;11.05;3.97;;;18.70;28.50;;;;;;4996690;28;20077;-82
2021/03/28 17:08:09;;;;;;;7.78;2.35;;;18.60;28.60;;;;;;4990773;28;20034;-83
2021/03/28 17:10:53;;;;;;;8.02;2.70;;;18.50;28.60;;;;;;4996573;28;20022;-82
2021/03/28 17:13:28;;;;;;;9.05;2.60;;;18.20;28.60;;;;;;4994607;28;20038;-82
2021/03/28 17:15:58;;;;;;;7.03;2.20;;;18.50;28.80;;;;;;4999039;28;20038;-82
2021/03/28 17:18:24;;;;;;;4.95;2.40;;;18.00;28.60;;;;;;5016037;28;20022;-82
2021/03/28 17:21:21;;;;;;;5.97;2.50;;;18.00;28.80;;;;;;5015134;28;20120;-82
2021/03/28 17:24:24;;;;;;;6.85;2.50;;;17.70;28.50;;;;;;5015935;28;20030;-82
2021/03/28 17:26:50;;;;;;;5.75;2.33;;;17.50;28.50;;;;;;5014883;28;20030;-82
2021/03/28 17:29:51;;;;;;;4.95;2.10;;;17.30;28.60;;;;;;5016071;28;20097;-83
2021/03/28 17:32:25;;;;;;;8.15;2.58;;;17.60;28.70;;;;;;5015639;28;20131;-83
2021/03/28 17:35:15;;;;;;;6.20;2.00;;;16.90;28.70;;;;;;5014584;28;20026;-82
2021/03/28 17:37:41;;;;;;;3.95;1.80;;;16.70;28.50;;;;;;5015535;28;20026;-83
2021/03/28 17:40:31;;;;;;;4.60;2.00;;;16.50;28.40;;;;;;5015331;28;20033;-81